Time;durP1;ratioP1;P1;durP2;ratioP2;P2;SDS_P1;SDS_P2;PMS_P1;PMS_P2;Temp;Humidity;BMP_temperature;BMP_pressure;BME280_temperature;BME280_humidity;BME280_pressure;Samples;Min_cycle;Max_cycle;Signal;HPM_P1;HPM_P2
2023/09/26 00:00:37;;;;;;;9.05;7.68;;;14.40;99.90;;;;;;5048975;28;20563;-75
2023/09/26 00:03:06;;;;;;;9.10;8.15;;;14.40;99.90;;;;;;5046779;28;20044;-76
2023/09/26 00:05:32;;;;;;;9.98;7.60;;;14.40;99.90;;;;;;5045930;28;20036;-75
2023/09/26 00:08:02;;;;;;;8.95;8.05;;;14.30;99.90;;;;;;5045172;28;20060;-75
2023/09/26 00:10:29;;;;;;;8.77;7.70;;;14.30;99.90;;;;;;5045255;28;20044;-75
2023/09/26 00:12:54;;;;;;;9.60;7.93;;;14.30;99.90;;;;;;5041639;28;20041;-76
2023/09/26 00:15:21;;;;;;;8.57;7.57;;;14.30;99.90;;;;;;5059499;28;20086;-76
2023/09/26 00:17:47;;;;;;;8.60;7.70;;;14.30;99.90;;;;;;5043461;28;20052;-76
2023/09/26 00:20:17;;;;;;;8.45;7.50;;;14.30;99.90;;;;;;5057638;28;20028;-76
2023/09/26 00:22:43;;;;;;;8.48;7.60;;;14.20;99.90;;;;;;5038212;28;20083;-76
2023/09/26 00:25:10;;;;;;;8.80;7.90;;;14.20;99.90;;;;;;5041595;28;20450;-76
2023/09/26 00:27:36;;;;;;;9.95;7.38;;;14.20;99.90;;;;;;5039085;28;20102;-76
2023/09/26 00:30:02;;;;;;;8.57;7.28;;;14.10;99.90;;;;;;5058930;28;20048;-76
2023/09/26 00:32:30;;;;;;;10.02;8.48;;;14.10;99.90;;;;;;5062091;28;20047;-76
2023/09/26 00:34:56;;;;;;;9.52;8.52;;;14.00;99.90;;;;;;5053402;28;20078;-76
2023/09/26 00:37:22;;;;;;;8.98;8.00;;;14.00;99.90;;;;;;5040507;28;20055;-76
2023/09/26 00:39:47;;;;;;;8.35;7.25;;;13.90;99.90;;;;;;5037243;28;20131;-76
2023/09/26 00:42:13;;;;;;;8.82;7.70;;;13.90;99.90;;;;;;5043740;28;20062;-76
2023/09/26 00:44:38;;;;;;;8.55;7.13;;;13.90;99.90;;;;;;5055296;28;20128;-76
2023/09/26 00:47:05;;;;;;;9.30;8.30;;;13.80;99.90;;;;;;5044432;28;20075;-76
2023/09/26 00:49:31;;;;;;;9.48;7.78;;;13.80;99.90;;;;;;5056764;28;20098;-76
2023/09/26 00:51:59;;;;;;;9.65;7.60;;;13.80;99.90;;;;;;5039624;28;20060;-76
2023/09/26 00:54:25;;;;;;;9.48;7.85;;;13.80;99.90;;;;;;5043053;28;20045;-76
2023/09/26 00:56:52;;;;;;;9.88;7.95;;;13.80;99.90;;;;;;5052965;28;20127;-76
2023/09/26 00:59:18;;;;;;;8.98;8.05;;;13.80;99.90;;;;;;5054643;28;20052;-75
2023/09/26 01:01:45;;;;;;;8.85;7.68;;;13.80;99.90;;;;;;5062039;28;20404;-76
2023/09/26 01:04:11;;;;;;;;;;;13.80;99.90;;;;;;5061988;28;20043;-76
2023/09/26 01:06:36;;;;;;;12.70;8.00;;;13.70;99.90;;;;;;5059478;28;19924;-76
2023/09/26 01:09:05;;;;;;;9.15;8.10;;;13.70;99.90;;;;;;5031675;28;20052;-75
2023/09/26 01:11:31;;;;;;;9.05;7.82;;;13.70;99.90;;;;;;5067564;28;20048;-76
2023/09/26 01:13:57;;;;;;;8.98;8.07;;;13.70;99.90;;;;;;5055834;28;20044;-76
2023/09/26 01:16:23;;;;;;;9.23;7.97;;;13.70;99.90;;;;;;5044032;28;20892;-76
2023/09/26 01:18:48;;;;;;;10.07;8.82;;;13.70;99.90;;;;;;5035040;28;20357;-76
2023/09/26 01:21:14;;;;;;;11.73;8.30;;;13.70;99.90;;;;;;5040176;28;20052;-76
2023/09/26 01:23:45;;;;;;;9.98;8.40;;;13.70;99.90;;;;;;5038186;28;20051;-76
2023/09/26 01:26:10;;;;;;;10.23;8.73;;;13.70;99.90;;;;;;5038990;28;20028;-76
2023/09/26 01:28:36;;;;;;;9.85;7.78;;;13.70;99.90;;;;;;5055933;28;20066;-76
2023/09/26 01:31:02;;;;;;;10.43;7.97;;;13.70;99.90;;;;;;5038937;28;20044;-76
2023/09/26 01:33:28;;;;;;;10.38;8.48;;;13.80;99.90;;;;;;5042404;28;20502;-76
2023/09/26 01:35:54;;;;;;;10.38;8.73;;;13.70;99.90;;;;;;5038831;28;20051;-76
2023/09/26 01:38:21;;;;;;;10.65;8.93;;;13.70;99.90;;;;;;5037756;28;20113;-76
2023/09/26 01:40:47;;;;;;;11.30;9.05;;;13.70;99.90;;;;;;5062195;28;20131;-76
2023/09/26 01:43:13;;;;;;;10.00;8.40;;;13.70;99.90;;;;;;5021891;28;20133;-76
2023/09/26 01:45:38;;;;;;;11.77;8.75;;;13.70;99.90;;;;;;5040976;28;20159;-76
2023/09/26 01:48:05;;;;;;;10.60;8.23;;;13.70;99.90;;;;;;5060673;28;20028;-76
2023/09/26 01:50:34;;;;;;;10.70;8.95;;;13.70;99.90;;;;;;5056978;28;20033;-76
2023/09/26 01:53:00;;;;;;;9.77;8.20;;;13.70;99.90;;;;;;5046917;28;20044;-76
2023/09/26 01:55:25;;;;;;;10.10;8.70;;;13.70;99.90;;;;;;5048316;28;20578;-75
2023/09/26 01:57:51;;;;;;;9.48;8.48;;;13.70;99.90;;;;;;5045774;28;20139;-76
2023/09/26 02:00:19;;;;;;;11.00;9.15;;;13.70;99.90;;;;;;5060285;28;20049;-75
2023/09/26 02:02:50;;;;;;;10.38;8.68;;;13.70;99.90;;;;;;5044790;28;20058;-76
2023/09/26 02:05:20;;;;;;;9.77;8.70;;;13.70;99.90;;;;;;5061673;28;20047;-75
2023/09/26 02:07:47;;;;;;;9.93;8.55;;;13.70;99.90;;;;;;5043462;28;20490;-76
2023/09/26 02:10:14;;;;;;;9.90;8.00;;;13.60;99.90;;;;;;5064362;28;20037;-75
2023/09/26 02:12:49;;;;;;;9.85;8.40;;;13.60;99.90;;;;;;5058269;28;20033;-76
2023/09/26 02:15:15;;;;;;;9.23;8.32;;;13.60;99.90;;;;;;5061568;28;20036;-76
2023/09/26 02:17:41;;;;;;;10.55;9.20;;;13.50;99.90;;;;;;5056183;28;20037;-76
2023/09/26 02:20:14;;;;;;;9.57;8.67;;;13.50;99.90;;;;;;5057011;28;20120;-76
2023/09/26 02:22:45;;;;;;;9.57;8.60;;;13.50;99.90;;;;;;5055031;28;20112;-76
2023/09/26 02:25:12;;;;;;;11.00;9.05;;;13.50;99.90;;;;;;5043290;28;20557;-76
2023/09/26 02:27:39;;;;;;;9.52;8.63;;;13.50;99.90;;;;;;5062354;28;20535;-76
2023/09/26 02:30:09;;;;;;;10.07;9.05;;;13.50;99.90;;;;;;5040428;28;20495;-76
2023/09/26 02:32:36;;;;;;;10.35;8.85;;;13.50;99.90;;;;;;5058825;28;20055;-76
2023/09/26 02:35:07;;;;;;;12.80;9.50;;;13.50;99.90;;;;;;5038297;28;20040;-76
2023/09/26 02:37:33;;;;;;;10.82;8.27;;;13.40;99.90;;;;;;5058314;28;20048;-75
2023/09/26 02:40:00;;;;;;;10.85;8.55;;;13.40;99.90;;;;;;5057173;28;20039;-76
2023/09/26 02:42:26;;;;;;;9.90;9.00;;;13.30;99.90;;;;;;5040765;28;20103;-76
2023/09/26 02:44:52;;;;;;;11.20;9.30;;;13.30;99.90;;;;;;5041889;28;20067;-76
2023/09/26 02:47:18;;;;;;;10.35;9.25;;;13.30;99.90;;;;;;5060674;28;20044;-76
2023/09/26 02:49:43;;;;;;;10.85;9.07;;;13.20;99.90;;;;;;5043403;28;20373;-76
2023/09/26 02:52:09;;;;;;;9.82;8.57;;;13.30;99.90;;;;;;5043062;28;20132;-76
2023/09/26 02:54:35;;;;;;;10.15;9.13;;;13.20;99.90;;;;;;5044797;28;20079;-76
2023/09/26 02:57:00;;;;;;;11.13;9.38;;;13.20;99.90;;;;;;5060753;28;20087;-76
2023/09/26 02:59:26;;;;;;;11.75;9.00;;;13.20;99.90;;;;;;5043337;28;20548;-76
2023/09/26 03:01:52;;;;;;;10.02;9.02;;;13.20;99.90;;;;;;5035940;28;20056;-76
2023/09/26 03:04:18;;;;;;;10.95;9.18;;;13.30;99.90;;;;;;5041857;28;20132;-76
2023/09/26 03:06:43;;;;;;;9.93;9.02;;;13.20;99.90;;;;;;5058956;28;20446;-75
2023/09/26 03:09:09;;;;;;;10.55;9.32;;;13.20;99.90;;;;;;5042708;28;20094;-75
2023/09/26 03:11:35;;;;;;;11.40;10.23;;;13.20;99.90;;;;;;5064257;28;20128;-75
2023/09/26 03:14:00;;;;;;;10.73;9.63;;;13.10;99.90;;;;;;5061009;28;20051;-75
2023/09/26 03:16:26;;;;;;;10.73;9.65;;;13.10;99.90;;;;;;5048010;28;20043;-75
2023/09/26 03:18:55;;;;;;;10.93;9.80;;;13.10;99.90;;;;;;5036648;28;20041;-75
2023/09/26 03:21:21;;;;;;;10.75;9.38;;;13.10;99.90;;;;;;5060724;28;20044;-76
2023/09/26 03:23:47;;;;;;;10.80;9.63;;;13.10;99.90;;;;;;5040110;28;20051;-76
2023/09/26 03:26:14;;;;;;;11.52;9.43;;;13.00;99.90;;;;;;5041389;28;20131;-75
2023/09/26 03:28:40;;;;;;;12.25;9.15;;;13.00;99.90;;;;;;5042061;28;20044;-75
2023/09/26 03:31:06;;;;;;;10.55;9.40;;;13.00;99.90;;;;;;5037712;28;20044;-75
2023/09/26 03:33:34;;;;;;;11.13;9.43;;;13.00;99.90;;;;;;5057147;28;20066;-75
2023/09/26 03:36:01;;;;;;;10.57;9.52;;;13.00;99.90;;;;;;5037309;28;20167;-75
2023/09/26 03:38:27;;;;;;;10.40;9.23;;;13.00;99.90;;;;;;5034447;28;20083;-76
2023/09/26 03:41:06;;;;;;;10.13;9.13;;;13.00;99.90;;;;;;5044740;28;20072;-75
2023/09/26 03:43:32;;;;;;;10.70;9.63;;;13.00;99.90;;;;;;5055432;28;20559;-76
2023/09/26 03:46:03;;;;;;;11.05;10.00;;;12.90;99.90;;;;;;5056096;28;20067;-75
2023/09/26 03:48:29;;;;;;;11.35;10.25;;;12.90;99.90;;;;;;5040350;28;20166;-76
2023/09/26 03:50:55;;;;;;;11.18;9.98;;;12.80;99.90;;;;;;5054672;28;20036;-76
2023/09/26 03:53:21;;;;;;;11.52;10.38;;;12.80;99.90;;;;;;5039951;28;20098;-75
2023/09/26 03:55:56;;;;;;;11.52;10.32;;;12.80;99.90;;;;;;5057559;28;20494;-75
2023/09/26 03:58:22;;;;;;;11.68;10.48;;;12.80;99.90;;;;;;5033868;28;20890;-76
2023/09/26 04:00:48;;;;;;;10.48;9.48;;;12.70;99.90;;;;;;5042371;28;20515;-76
2023/09/26 04:03:13;;;;;;;11.02;9.95;;;12.70;99.90;;;;;;5047992;28;20123;-76
2023/09/26 04:05:46;;;;;;;13.23;9.55;;;12.70;99.90;;;;;;5041620;28;20058;-75
2023/09/26 04:08:13;;;;;;;10.90;9.80;;;12.60;99.90;;;;;;5057835;28;20175;-75
2023/09/26 04:10:39;;;;;;;12.25;10.52;;;12.70;99.90;;;;;;5040124;28;20121;-75
2023/09/26 04:13:05;;;;;;;12.20;11.00;;;12.70;99.90;;;;;;5039846;28;20672;-75
2023/09/26 04:15:31;;;;;;;12.35;11.15;;;12.70;99.90;;;;;;5034486;28;20089;-75
2023/09/26 04:17:56;;;;;;;12.30;11.18;;;12.70;99.90;;;;;;5045463;28;20036;-75
2023/09/26 04:20:23;;;;;;;12.48;11.00;;;12.70;99.90;;;;;;5061312;28;20846;-75
2023/09/26 04:22:49;;;;;;;11.50;10.40;;;12.80;99.90;;;;;;5041405;28;20563;-75
2023/09/26 04:25:15;;;;;;;11.60;10.40;;;12.80;99.90;;;;;;5040970;28;21982;-75
2023/09/26 04:27:40;;;;;;;12.73;11.52;;;12.80;99.90;;;;;;5041717;28;20043;-75
2023/09/26 04:30:09;;;;;;;12.23;11.13;;;12.70;99.90;;;;;;5040353;28;20059;-75
2023/09/26 04:32:35;;;;;;;13.02;11.13;;;12.70;99.90;;;;;;5055155;28;20168;-75
2023/09/26 04:35:01;;;;;;;13.30;10.82;;;12.70;99.90;;;;;;5039352;28;20056;-75
2023/09/26 04:37:26;;;;;;;11.82;10.73;;;12.70;99.90;;;;;;5036786;28;20445;-76
2023/09/26 04:39:52;;;;;;;12.43;10.43;;;12.70;99.90;;;;;;5057312;28;20433;-76
2023/09/26 04:42:17;;;;;;;13.68;11.07;;;12.70;99.90;;;;;;5052747;28;20063;-76
2023/09/26 04:44:43;;;;;;;13.23;11.65;;;12.70;99.90;;;;;;5057686;28;20067;-76
2023/09/26 04:47:09;;;;;;;13.13;11.02;;;12.70;99.90;;;;;;5040794;28;20052;-75
2023/09/26 04:49:35;;;;;;;12.70;11.38;;;12.70;99.90;;;;;;5037499;28;20044;-76
2023/09/26 04:52:04;;;;;;;12.75;10.77;;;12.60;99.90;;;;;;5041413;28;22007;-75
2023/09/26 04:54:29;;;;;;;12.00;10.80;;;12.60;99.90;;;;;;5060430;28;20655;-76
2023/09/26 04:56:56;;;;;;;13.27;11.98;;;12.60;99.90;;;;;;5038194;28;20060;-75
2023/09/26 04:59:21;;;;;;;11.95;10.55;;;12.60;99.90;;;;;;5049001;28;20517;-74
2023/09/26 05:01:48;;;;;;;13.38;12.18;;;12.60;99.90;;;;;;5055291;28;20455;-75
2023/09/26 05:04:15;;;;;;;13.57;12.18;;;12.60;99.90;;;;;;5043026;28;20053;-75
2023/09/26 05:06:40;;;;;;;13.10;11.85;;;12.60;99.90;;;;;;5033471;28;20040;-75
2023/09/26 05:09:07;;;;;;;13.75;12.35;;;12.60;99.90;;;;;;5037892;28;20135;-75
2023/09/26 05:11:32;;;;;;;12.80;11.57;;;12.60;99.90;;;;;;5024458;28;20037;-75
2023/09/26 05:13:59;;;;;;;13.05;11.63;;;12.60;99.90;;;;;;5036554;28;20105;-75
2023/09/26 05:16:25;;;;;;;13.35;12.05;;;12.60;99.90;;;;;;5039103;28;20041;-75
2023/09/26 05:18:51;;;;;;;14.20;12.80;;;12.60;99.90;;;;;;5040026;28;20055;-75
2023/09/26 05:21:16;;;;;;;14.30;12.80;;;12.60;99.90;;;;;;5045414;28;20036;-75
2023/09/26 05:23:42;;;;;;;14.10;12.70;;;12.60;99.90;;;;;;5042708;28;20572;-75
2023/09/26 05:26:10;;;;;;;14.45;13.10;;;12.60;99.90;;;;;;5046191;28;20071;-75
2023/09/26 05:28:35;;;;;;;14.30;12.90;;;12.70;99.90;;;;;;5058365;28;20055;-75
2023/09/26 05:31:01;;;;;;;14.02;12.65;;;12.70;99.90;;;;;;5055498;28;20044;-73
2023/09/26 05:33:27;;;;;;;14.82;13.40;;;12.70;99.90;;;;;;5043078;28;20462;-73
2023/09/26 05:35:55;;;;;;;13.93;12.52;;;12.80;99.90;;;;;;5045018;28;20045;-73
2023/09/26 05:38:21;;;;;;;14.77;13.15;;;12.80;99.90;;;;;;5044240;28;20043;-73
2023/09/26 05:40:49;;;;;;;15.20;13.70;;;12.80;99.90;;;;;;5064963;28;20107;-73
2023/09/26 05:43:18;;;;;;;15.20;13.65;;;12.80;99.90;;;;;;5058385;28;20310;-73
2023/09/26 05:45:47;;;;;;;15.65;13.98;;;12.90;99.90;;;;;;5061796;28;20035;-73
2023/09/26 05:48:12;;;;;;;16.77;15.05;;;12.90;99.90;;;;;;5048775;28;20694;-76
2023/09/26 05:50:38;;;;;;;19.77;17.63;;;12.90;99.90;;;;;;5044195;28;20045;-76
2023/09/26 05:53:04;;;;;;;19.85;17.90;;;13.00;99.90;;;;;;5066651;28;20083;-75
2023/09/26 05:55:31;;;;;;;20.90;18.92;;;13.10;99.90;;;;;;5041428;28;20080;-75
2023/09/26 05:57:57;;;;;;;20.13;18.23;;;13.00;99.90;;;;;;5044246;28;20500;-75
2023/09/26 06:00:23;;;;;;;18.70;16.92;;;13.10;99.90;;;;;;5045825;28;20506;-74
2023/09/26 06:02:51;;;;;;;16.35;14.75;;;13.10;99.90;;;;;;5044239;28;20045;-75
2023/09/26 06:05:17;;;;;;;16.52;14.88;;;13.20;99.90;;;;;;5041254;28;20103;-75
2023/09/26 06:07:43;;;;;;;15.35;13.75;;;13.20;99.90;;;;;;5063271;28;20481;-75
2023/09/26 06:10:13;;;;;;;14.50;13.00;;;13.20;99.90;;;;;;5043955;28;20055;-74
2023/09/26 06:12:39;;;;;;;15.10;13.55;;;13.30;99.90;;;;;;5040922;28;20040;-74
2023/09/26 06:15:06;;;;;;;14.80;13.35;;;13.30;99.90;;;;;;5051172;28;20037;-75
2023/09/26 06:17:32;;;;;;;14.25;12.75;;;13.30;99.90;;;;;;5049378;28;20066;-75
2023/09/26 06:19:58;;;;;;;15.63;14.10;;;13.30;99.90;;;;;;5066753;28;20032;-75
2023/09/26 06:22:24;;;;;;;15.98;14.35;;;13.30;99.90;;;;;;5050328;28;20546;-75
2023/09/26 06:24:50;;;;;;;14.95;13.55;;;13.40;99.90;;;;;;5048628;28;20049;-75
2023/09/26 06:27:16;;;;;;;14.65;13.30;;;13.40;99.90;;;;;;5041096;28;20052;-74
2023/09/26 06:29:44;;;;;;;15.68;14.18;;;13.50;99.90;;;;;;5049874;28;20044;-75
2023/09/26 06:32:10;;;;;;;14.82;13.38;;;13.50;99.90;;;;;;5060221;28;20040;-75
2023/09/26 06:34:39;;;;;;;14.30;12.90;;;13.50;99.90;;;;;;5049964;28;20051;-74
2023/09/26 06:37:05;;;;;;;15.82;13.90;;;13.60;99.90;;;;;;5047395;28;20051;-74
2023/09/26 06:39:31;;;;;;;15.43;13.93;;;13.60;99.90;;;;;;5046961;28;20044;-75
2023/09/26 06:41:57;;;;;;;15.18;13.45;;;13.60;99.90;;;;;;5046081;28;20036;-75
2023/09/26 06:44:22;;;;;;;15.23;13.82;;;13.60;99.90;;;;;;5040724;28;20063;-75
2023/09/26 06:46:48;;;;;;;14.48;13.07;;;13.70;99.90;;;;;;5042529;28;20044;-75
2023/09/26 06:49:14;;;;;;;15.95;14.25;;;13.70;99.90;;;;;;5067221;28;20049;-75
2023/09/26 06:51:40;;;;;;;15.32;13.73;;;13.70;99.90;;;;;;5062698;28;20039;-74
2023/09/26 06:54:06;;;;;;;14.80;13.37;;;13.70;99.90;;;;;;5047638;28;20044;-75
2023/09/26 06:56:32;;;;;;;14.73;13.43;;;13.70;99.90;;;;;;5059476;28;20047;-75
2023/09/26 06:58:57;;;;;;;13.82;12.63;;;13.80;99.90;;;;;;5043483;28;20479;-76
2023/09/26 07:01:23;;;;;;;14.07;12.77;;;13.70;99.90;;;;;;5039880;28;21727;-73
2023/09/26 07:03:49;;;;;;;14.55;12.40;;;13.80;99.90;;;;;;5060403;28;20543;-72
2023/09/26 07:06:15;;;;;;;14.35;12.63;;;13.80;99.90;;;;;;5049005;28;20620;-74
2023/09/26 07:08:43;;;;;;;14.23;12.82;;;13.80;99.90;;;;;;5056565;28;20090;-73
2023/09/26 07:11:09;;;;;;;14.43;13.07;;;13.90;99.90;;;;;;5034755;28;20067;-72
2023/09/26 07:13:36;;;;;;;13.85;12.68;;;13.90;99.90;;;;;;5044977;28;20116;-73
2023/09/26 07:16:03;;;;;;;14.77;13.30;;;13.90;99.90;;;;;;5036315;28;20678;-72
2023/09/26 07:18:34;;;;;;;15.18;13.68;;;14.00;99.90;;;;;;5051932;28;20687;-72
2023/09/26 07:21:04;;;;;;;14.27;12.88;;;14.00;99.90;;;;;;5046334;28;20106;-71
2023/09/26 07:23:34;;;;;;;14.63;13.15;;;14.10;99.90;;;;;;5038578;28;20048;-72
2023/09/26 07:26:12;;;;;;;15.00;13.68;;;14.10;99.90;;;;;;5044031;28;20119;-71
2023/09/26 07:28:38;;;;;;;14.23;12.82;;;14.20;99.90;;;;;;5041390;28;20045;-72
2023/09/26 07:31:04;;;;;;;14.00;12.70;;;14.20;99.90;;;;;;5056954;28;20049;-72
2023/09/26 07:33:30;;;;;;;14.45;13.05;;;14.20;99.90;;;;;;5062983;28;20051;-72
2023/09/26 07:35:56;;;;;;;14.50;13.00;;;14.30;99.90;;;;;;5045174;28;20120;-73
2023/09/26 07:38:22;;;;;;;14.27;12.98;;;14.30;99.90;;;;;;5032368;28;20148;-78
2023/09/26 07:40:48;;;;;;;14.52;13.07;;;14.40;99.90;;;;;;5035858;28;20052;-74
2023/09/26 07:43:13;;;;;;;14.35;12.95;;;14.40;99.90;;;;;;5034988;28;20586;-72
2023/09/26 07:45:39;;;;;;;14.45;12.68;;;14.40;99.90;;;;;;5046723;28;20060;-72
2023/09/26 07:48:06;;;;;;;14.32;12.90;;;14.50;99.90;;;;;;5043570;28;20588;-71
2023/09/26 07:50:31;;;;;;;13.95;12.55;;;14.50;99.90;;;;;;5042899;28;20101;-72
2023/09/26 07:52:57;;;;;;;13.27;11.82;;;14.60;99.90;;;;;;5038822;28;20726;-78
2023/09/26 07:55:24;;;;;;;13.98;12.18;;;14.70;99.90;;;;;;5047351;28;20032;-75
2023/09/26 07:57:50;;;;;;;12.30;11.10;;;14.70;99.90;;;;;;5036578;28;20083;-76
2023/09/26 08:00:16;;;;;;;13.30;12.00;;;14.80;99.90;;;;;;5037396;28;20055;-78
2023/09/26 08:02:41;;;;;;;12.32;11.13;;;14.90;99.90;;;;;;5040618;28;20041;-76
2023/09/26 08:05:07;;;;;;;13.45;11.38;;;15.10;99.90;;;;;;5053080;28;20040;-75
2023/09/26 08:07:33;;;;;;;12.48;11.10;;;15.20;99.90;;;;;;5033711;28;20071;-75
2023/09/26 08:10:00;;;;;;;12.25;11.00;;;15.20;99.90;;;;;;5030811;28;20188;-75
2023/09/26 08:12:29;;;;;;;12.57;11.20;;;15.30;99.90;;;;;;5058986;28;20912;-75
2023/09/26 08:14:56;;;;;;;12.20;10.80;;;15.40;99.90;;;;;;5045343;28;20729;-74
2023/09/26 08:17:23;;;;;;;11.30;10.20;;;15.50;99.90;;;;;;5039815;28;20045;-75
2023/09/26 08:19:48;;;;;;;12.17;10.43;;;15.50;99.90;;;;;;5047901;28;20298;-75
2023/09/26 08:22:14;;;;;;;12.27;11.07;;;15.60;99.90;;;;;;5036045;28;20303;-75
2023/09/26 08:24:40;;;;;;;11.93;10.73;;;15.60;99.90;;;;;;5036710;28;20046;-75
2023/09/26 08:27:06;;;;;;;11.43;10.27;;;15.70;99.90;;;;;;5043958;28;20048;-76
2023/09/26 08:29:32;;;;;;;12.05;10.85;;;15.70;99.90;;;;;;5045674;28;20040;-74
2023/09/26 08:31:58;;;;;;;12.07;10.50;;;15.70;99.90;;;;;;5055458;28;20552;-75
2023/09/26 08:34:24;;;;;;;11.63;10.30;;;15.80;99.90;;;;;;5046345;28;20060;-75
2023/09/26 08:36:51;;;;;;;10.45;9.43;;;15.80;99.90;;;;;;5034461;28;20455;-78
2023/09/26 08:39:16;;;;;;;10.40;9.30;;;15.80;99.90;;;;;;5059109;28;20033;-75
2023/09/26 08:41:46;;;;;;;11.40;10.30;;;15.80;99.90;;;;;;5040913;28;20151;-76
2023/09/26 08:44:12;;;;;;;11.15;10.05;;;15.90;99.90;;;;;;5055671;28;20052;-74
2023/09/26 08:46:39;;;;;;;12.13;10.83;;;16.00;99.90;;;;;;5047532;28;20127;-76
2023/09/26 08:49:05;;;;;;;10.95;9.85;;;16.00;99.90;;;;;;5038039;28;20074;-74
2023/09/26 08:51:33;;;;;;;10.40;9.35;;;16.10;99.90;;;;;;5039530;28;20044;-73
2023/09/26 08:53:59;;;;;;;11.32;10.18;;;16.10;99.90;;;;;;5041518;28;20044;-73
2023/09/26 08:56:24;;;;;;;10.77;9.77;;;16.20;99.90;;;;;;5041057;28;20070;-73
2023/09/26 08:58:53;;;;;;;10.82;9.73;;;16.20;99.90;;;;;;5035059;28;20102;-73
2023/09/26 09:01:19;;;;;;;10.38;9.35;;;16.30;99.90;;;;;;5034940;28;20056;-73
2023/09/26 09:03:46;;;;;;;10.77;9.73;;;16.30;99.90;;;;;;5040089;28;20064;-73
2023/09/26 09:06:15;;;;;;;10.93;9.85;;;16.40;99.90;;;;;;5042186;28;20427;-73
2023/09/26 09:08:41;;;;;;;10.60;9.50;;;16.50;99.90;;;;;;5042359;28;20563;-77
2023/09/26 09:11:06;;;;;;;10.82;9.80;;;16.50;99.90;;;;;;5049159;28;20045;-75
2023/09/26 09:13:40;;;;;;;10.32;9.27;;;16.60;99.90;;;;;;5031866;28;20148;-74
2023/09/26 09:16:11;;;;;;;10.07;9.13;;;16.70;99.90;;;;;;5051931;28;20051;-74
2023/09/26 09:18:39;;;;;;;10.65;9.65;;;16.70;99.90;;;;;;5030585;28;20029;-75
2023/09/26 09:21:30;;;;;;;11.27;9.43;;;16.70;99.90;;;;;;5044318;28;20079;-75
2023/09/26 09:23:58;;;;;;;10.50;8.85;;;16.80;99.90;;;;;;5057813;28;20196;-74
2023/09/26 09:26:26;;;;;;;10.75;9.20;;;16.90;99.90;;;;;;5047727;28;20047;-72
2023/09/26 09:28:55;;;;;;;10.10;8.93;;;16.90;99.90;;;;;;5054239;28;20515;-78
2023/09/26 09:31:21;;;;;;;10.13;8.98;;;16.90;99.90;;;;;;5047890;28;20452;-76
2023/09/26 09:33:52;;;;;;;11.40;8.90;;;17.00;99.90;;;;;;5037995;28;20043;-76
2023/09/26 09:36:19;;;;;;;9.57;8.68;;;17.00;99.90;;;;;;5035090;28;20449;-76
2023/09/26 09:38:45;;;;;;;10.25;9.15;;;17.10;99.90;;;;;;5050816;28;20543;-75
2023/09/26 09:41:10;;;;;;;12.55;9.38;;;17.30;99.90;;;;;;5043140;28;20131;-75
2023/09/26 09:43:37;;;;;;;10.05;9.15;;;17.40;99.90;;;;;;5033984;28;20139;-75
2023/09/26 09:46:07;;;;;;;9.90;8.95;;;17.60;99.90;;;;;;5040711;28;20392;-75
2023/09/26 09:48:44;;;;;;;10.63;8.90;;;17.70;99.90;;;;;;5034396;28;20144;-75
2023/09/26 09:51:15;;;;;;;9.50;8.55;;;17.80;99.90;;;;;;5024800;28;20052;-75
2023/09/26 09:53:42;;;;;;;9.32;8.40;;;17.90;99.90;;;;;;5040469;28;20055;-75
2023/09/26 09:56:09;;;;;;;12.43;8.40;;;17.90;99.90;;;;;;5041722;28;20063;-75
2023/09/26 09:58:44;;;;;;;9.55;8.55;;;17.90;99.90;;;;;;5029408;28;20048;-75
2023/09/26 10:01:13;;;;;;;10.18;8.80;;;17.90;99.90;;;;;;5054860;28;20400;-75
2023/09/26 10:03:38;;;;;;;9.57;8.20;;;18.00;99.90;;;;;;5032018;28;20060;-75
2023/09/26 10:06:09;;;;;;;10.57;8.07;;;18.00;99.90;;;;;;5044066;28;20037;-74
2023/09/26 10:08:37;;;;;;;10.23;8.48;;;18.10;99.90;;;;;;5041083;28;20067;-74
2023/09/26 10:11:04;;;;;;;10.23;8.05;;;18.20;99.90;;;;;;5046754;28;20044;-72
2023/09/26 10:13:30;;;;;;;9.25;7.50;;;18.20;99.90;;;;;;5039345;28;20040;-74
2023/09/26 10:16:14;;;;;;;9.35;8.02;;;18.30;99.90;;;;;;5041909;28;20078;-74
2023/09/26 10:18:43;;;;;;;8.60;7.47;;;18.40;99.90;;;;;;5039345;28;20095;-75
2023/09/26 10:21:22;;;;;;;8.63;7.47;;;18.40;99.90;;;;;;5045420;28;20437;-71
2023/09/26 10:24:13;;;;;;;9.32;8.10;;;18.60;99.90;;;;;;5051863;28;20102;-71
2023/09/26 10:26:49;;;;;;;9.07;7.72;;;18.60;99.90;;;;;;5036480;28;20168;-72
2023/09/26 10:29:24;;;;;;;9.55;7.97;;;18.70;99.90;;;;;;5045041;28;20047;-72
2023/09/26 10:32:04;;;;;;;10.10;8.30;;;18.70;99.90;;;;;;5039366;28;20053;-70
2023/09/26 10:34:34;;;;;;;8.73;7.80;;;18.70;99.90;;;;;;5051950;28;20495;-72
2023/09/26 10:37:00;;;;;;;10.23;8.00;;;18.80;99.90;;;;;;5057048;28;20125;-71
2023/09/26 10:39:37;;;;;;;9.75;7.57;;;18.80;99.90;;;;;;5061338;28;20056;-71
2023/09/26 10:42:12;;;;;;;8.77;7.25;;;18.90;99.90;;;;;;5038959;28;20048;-72
2023/09/26 10:44:39;;;;;;;8.60;7.32;;;19.00;99.90;;;;;;5042261;28;20071;-71
2023/09/26 10:47:05;;;;;;;;;;;19.00;99.90;;;;;;5040346;28;20044;-71
2023/09/26 10:49:34;;;;;;;7.93;7.13;;;19.10;99.90;;;;;;5061653;28;19920;-71
2023/09/26 10:52:03;;;;;;;8.95;7.60;;;19.10;99.90;;;;;;5036109;28;20049;-71
2023/09/26 10:54:30;;;;;;;7.93;6.80;;;19.20;99.90;;;;;;5055297;28;20120;-71
2023/09/26 10:56:59;;;;;;;7.40;6.70;;;19.30;99.90;;;;;;5033809;28;20060;-70
2023/09/26 10:59:29;;;;;;;8.13;6.78;;;19.40;99.90;;;;;;5057907;28;20044;-72
2023/09/26 11:01:56;;;;;;;7.05;6.22;;;19.40;99.90;;;;;;5041389;28;20057;-72
2023/09/26 11:04:28;;;;;;;7.85;6.05;;;19.50;99.90;;;;;;5033686;28;20185;-73
2023/09/26 11:06:55;;;;;;;14.27;7.70;;;19.60;99.90;;;;;;5067023;28;20040;-73
2023/09/26 11:09:20;;;;;;;14.32;7.57;;;19.70;99.90;;;;;;5041176;28;20565;-74
2023/09/26 11:11:46;;;;;;;9.50;6.03;;;19.80;99.90;;;;;;5053007;28;20041;-74
2023/09/26 11:14:12;;;;;;;8.15;5.82;;;19.80;99.90;;;;;;5031516;28;20871;-74
2023/09/26 11:16:41;;;;;;;6.68;5.90;;;19.90;99.90;;;;;;5044130;28;20112;-74
2023/09/26 11:19:09;;;;;;;8.32;5.75;;;20.00;99.90;;;;;;5058445;28;20061;-75
2023/09/26 11:21:35;;;;;;;9.50;5.57;;;20.00;99.90;;;;;;5064028;28;20044;-74
2023/09/26 11:24:20;;;;;;;7.88;5.50;;;20.10;99.90;;;;;;5050614;28;20041;-75
2023/09/26 11:26:48;;;;;;;7.00;4.80;;;20.10;99.90;;;;;;5046805;28;20608;-75
2023/09/26 11:29:16;;;;;;;6.90;4.75;;;20.10;99.90;;;;;;5037491;28;20124;-74
2023/09/26 11:31:43;;;;;;;6.97;4.95;;;20.20;99.90;;;;;;5039291;28;20083;-75
2023/09/26 11:34:09;;;;;;;6.32;5.00;;;20.30;99.90;;;;;;5041132;28;20159;-75
2023/09/26 11:36:34;;;;;;;8.18;5.18;;;20.40;99.90;;;;;;5043918;28;20123;-73
2023/09/26 11:39:00;;;;;;;7.50;5.07;;;20.40;99.90;;;;;;5055419;28;20037;-75
2023/09/26 11:41:26;;;;;;;6.78;4.65;;;20.50;99.90;;;;;;5038126;28;20045;-74
2023/09/26 11:43:55;;;;;;;6.95;4.68;;;20.50;99.90;;;;;;5048938;28;20041;-73
2023/09/26 11:46:21;;;;;;;9.45;5.20;;;20.50;99.90;;;;;;5039080;28;20044;-73
2023/09/26 11:48:47;;;;;;;20.33;8.15;;;20.60;99.90;;;;;;5053290;28;20044;-73
2023/09/26 11:51:13;;;;;;;12.70;6.25;;;20.60;99.90;;;;;;5057600;28;20047;-73
2023/09/26 11:53:40;;;;;;;45.47;14.13;;;20.70;99.90;;;;;;5035584;28;20481;-73
2023/09/26 11:56:07;;;;;;;;;;;20.70;99.90;;;;;;5030567;28;20055;-73
2023/09/26 11:58:34;;;;;;;7.38;4.72;;;20.70;99.90;;;;;;5014226;28;19967;-72
2023/09/26 12:00:59;;;;;;;6.25;4.05;;;20.70;99.90;;;;;;5043071;28;20508;-72
2023/09/26 12:03:25;;;;;;;12.07;5.32;;;20.80;99.90;;;;;;5034844;28;20146;-75
2023/09/26 12:05:51;;;;;;;8.90;4.60;;;20.80;99.90;;;;;;5038990;28;20045;-74
2023/09/26 12:08:16;;;;;;;6.72;4.00;;;20.90;99.90;;;;;;5052614;28;20036;-70
2023/09/26 12:10:43;;;;;;;6.47;4.05;;;20.90;99.90;;;;;;5057393;28;20127;-69
2023/09/26 12:13:09;;;;;;;6.00;4.50;;;21.00;99.90;;;;;;5056689;28;20052;-72
2023/09/26 12:15:34;;;;;;;6.95;4.15;;;21.00;99.90;;;;;;5030978;28;20296;-70
2023/09/26 12:18:00;;;;;;;6.20;4.00;;;21.10;99.90;;;;;;5041807;28;20430;-72
2023/09/26 12:20:26;;;;;;;8.75;3.85;;;21.10;99.90;;;;;;5058278;28;20537;-74
2023/09/26 12:22:56;;;;;;;5.82;3.78;;;21.10;99.90;;;;;;5041257;28;20053;-72
2023/09/26 12:25:23;;;;;;;5.38;3.60;;;21.10;99.90;;;;;;5038915;28;20359;-72
2023/09/26 12:27:50;;;;;;;5.65;3.53;;;21.20;99.90;;;;;;5037906;28;20472;-72
2023/09/26 12:30:16;;;;;;;6.50;3.72;;;21.20;99.90;;;;;;5041522;28;20075;-72
2023/09/26 12:32:42;;;;;;;8.63;5.32;;;21.30;99.90;;;;;;5057629;28;20616;-72
2023/09/26 12:35:08;;;;;;;6.97;4.45;;;21.30;99.90;;;;;;5037847;28;20053;-73
2023/09/26 12:37:36;;;;;;;9.10;4.50;;;21.30;99.90;;;;;;5049254;28;20067;-73